^^
Station Historical Data
 
Daily Summary for May 22, 2015 Units:  English    Metric   Both
« Previous Day
Next Day »
Daily Weekly Monthly Yearly Custom
  Current: High: Low: Average:
Temperature: 73.6 °F 74.5 °F 48.1 °F 61.3 °F
Dew Point: 43.5 °F 48.7 °F 41.4 °F 45.5 °F
Humidity: 34% 89% 31% 59%
Wind Speed: 0.0mph 3.0mph 1.0mph 1.6mph
Wind Gust: 4.0mph 9.0mph - -
WindCalm - - SE
Pressure: 30.19 in 30.20 in 30.02 in -
Precipitation: 0.00 in      
Historical Graphs
 
 
Tabular Data for May 22, 2015
Time Temperature Dew Point Pressure Wind Wind Speed Wind Gust Humidity Rainfall Rate (Hourly)
00:19 58.6 °F 43.9 °F 30.03 in SW 3.0 mph 6.0 mph 58% 0.00 in
00:29 58.4 °F 44.1 °F 30.03 in SW 3.0 mph 7.0 mph 59% 0.00 in
00:39 58.2 °F 44.4 °F 30.03 in SW 3.0 mph 5.0 mph 60% 0.00 in
00:49 57.9 °F 44.6 °F 30.02 in SW 3.0 mph 6.0 mph 61% 0.00 in
00:59 57.7 °F 44.8 °F 30.02 in SW 3.0 mph 6.0 mph 62% 0.00 in
01:09 57.8 °F 44.9 °F 30.02 in SW 2.0 mph 8.0 mph 62% 0.00 in
01:19 57.9 °F 45.4 °F 30.03 in SW 2.0 mph 7.0 mph 63% 0.00 in
01:29 57.7 °F 45.2 °F 30.03 in SW 3.0 mph 9.0 mph 63% 0.00 in
01:39 57.4 °F 45.3 °F 30.02 in SW 3.0 mph 8.0 mph 64% 0.00 in
01:49 57.3 °F 45.7 °F 30.02 in SSW 3.0 mph 7.0 mph 65% 0.00 in
01:59 57.3 °F 45.6 °F 30.02 in SW 2.0 mph 7.0 mph 65% 0.00 in
02:09 57.5 °F 46.2 °F 30.02 in SW 2.0 mph 7.0 mph 66% 0.00 in
02:19 57.7 °F 46.4 °F 30.03 in SW 3.0 mph 6.0 mph 66% 0.00 in
02:29 58.0 °F 46.7 °F 30.03 in SW 3.0 mph 7.0 mph 66% 0.00 in
02:39 57.8 °F 46.5 °F 30.03 in SW 3.0 mph 9.0 mph 66% 0.00 in
02:49 57.5 °F 46.6 °F 30.03 in SW 2.0 mph 8.0 mph 67% 0.00 in
02:59 57.2 °F 46.7 °F 30.03 in SW 2.0 mph 8.0 mph 68% 0.00 in
03:09 56.8 °F 46.7 °F 30.03 in WSW 2.0 mph 5.0 mph 69% 0.00 in
03:19 56.1 °F 46.8 °F 30.03 in SW 2.0 mph 4.0 mph 71% 0.00 in
03:29 55.4 °F 46.5 °F 30.04 in WSW 2.0 mph 4.0 mph 72% 0.00 in
03:39 54.8 °F 46.3 °F 30.04 in West 1.0 mph 6.0 mph 73% 0.00 in
03:49 54.1 °F 46.3 °F 30.05 in West 1.0 mph 3.0 mph 75% 0.00 in
03:59 53.4 °F 46.0 °F 30.05 in West 1.0 mph 2.0 mph 76% 0.00 in
04:09 52.8 °F 46.1 °F 30.05 in West 1.0 mph 2.0 mph 78% 0.00 in
04:19 52.3 °F 45.9 °F 30.06 in Calm   2.0 mph 79% 0.00 in
04:29 51.6 °F 45.6 °F 30.06 in Calm   1.0 mph 80% 0.00 in
04:39 51.0 °F 45.4 °F 30.07 in Calm   1.0 mph 81% 0.00 in
04:49 50.5 °F 45.2 °F 30.07 in Calm     82% 0.00 in
04:59 50.0 °F 45.0 °F 30.08 in Calm   1.0 mph 83% 0.00 in
05:09 49.6 °F 44.9 °F 30.08 in Calm   1.0 mph 84% 0.00 in
05:19 49.0 °F 44.7 °F 30.08 in Calm     85% 0.00 in
05:29 48.5 °F 44.5 °F 30.09 in Calm     86% 0.00 in
05:39 48.1 °F 44.4 °F 30.09 in Calm   1.0 mph 87% 0.00 in
05:49 48.3 °F 45.2 °F 30.10 in Calm     89% 0.00 in
06:09 49.7 °F 45.4 °F 30.11 in West 1.0 mph 2.0 mph 85% 0.00 in
06:19 50.0 °F 45.4 °F 30.11 in West 1.0 mph 2.0 mph 84% 0.00 in
06:29 50.3 °F 45.6 °F 30.11 in West 1.0 mph 2.0 mph 84% 0.00 in
06:39 50.5 °F 45.5 °F 30.11 in West 1.0 mph 2.0 mph 83% 0.00 in
06:49 50.9 °F 45.6 °F 30.12 in WNW 1.0 mph 2.0 mph 82% 0.00 in
06:59 51.3 °F 45.7 °F 30.12 in NNE 1.0 mph 3.0 mph 81% 0.00 in
07:09 51.6 °F 45.6 °F 30.12 in NE 1.0 mph 3.0 mph 80% 0.00 in
07:19 52.1 °F 45.8 °F 30.13 in NE 1.0 mph 2.0 mph 79% 0.00 in
07:29 52.6 °F 45.9 °F 30.14 in NE 1.0 mph 2.0 mph 78% 0.00 in
07:39 53.3 °F 46.3 °F 30.14 in Calm   2.0 mph 77% 0.00 in
07:49 54.2 °F 46.4 °F 30.14 in NE 1.0 mph 2.0 mph 75% 0.00 in
07:59 55.3 °F 47.5 °F 30.15 in NE 1.0 mph 2.0 mph 75% 0.00 in
08:09 56.3 °F 47.4 °F 30.15 in Calm   2.0 mph 72% 0.00 in
08:19 57.3 °F 47.6 °F 30.15 in NE 1.0 mph 2.0 mph 70% 0.00 in
08:29 58.3 °F 47.4 °F 30.15 in NE 1.0 mph 3.0 mph 67% 0.00 in
08:39 59.3 °F 48.0 °F 30.16 in ENE 1.0 mph 3.0 mph 66% 0.00 in
08:49 60.3 °F 47.2 °F 30.16 in Calm   2.0 mph 62% 0.00 in
08:59 61.4 °F 48.7 °F 30.16 in NE 1.0 mph 4.0 mph 63% 0.00 in
09:09 62.7 °F 47.7 °F 30.17 in ENE 1.0 mph 4.0 mph 58% 0.00 in
09:19 64.4 °F 47.9 °F 30.17 in Calm   4.0 mph 55% 0.00 in
09:29 65.1 °F 48.5 °F 30.17 in ENE 1.0 mph 3.0 mph 55% 0.00 in
09:39 66.1 °F 46.9 °F 30.17 in East 2.0 mph 4.0 mph 50% 0.00 in
09:49 66.6 °F 46.8 °F 30.17 in NE 2.0 mph 5.0 mph 49% 0.00 in
09:59 67.1 °F 46.2 °F 30.17 in NE 1.0 mph 4.0 mph 47% 0.00 in
10:09 67.9 °F 48.6 °F 30.17 in ENE 1.0 mph 5.0 mph 50% 0.00 in
10:19 68.7 °F 45.3 °F 30.18 in NNE 2.0 mph 4.0 mph 43% 0.00 in
10:29 68.7 °F 46.5 °F 30.18 in ENE 1.0 mph 4.0 mph 45% 0.00 in
10:39 68.9 °F 46.7 °F 30.18 in NNE 1.0 mph 3.0 mph 45% 0.00 in
10:49 69.5 °F 46.0 °F 30.18 in ENE 1.0 mph 4.0 mph 43% 0.00 in
10:59 70.8 °F 47.8 °F 30.18 in NE 1.0 mph 6.0 mph 44% 0.00 in
11:09 71.1 °F 47.5 °F 30.18 in North 2.0 mph 5.0 mph 43% 0.00 in
11:19 70.4 °F 46.8 °F 30.18 in North 2.0 mph 4.0 mph 43% 0.00 in
11:29 70.7 °F 47.1 °F 30.18 in ENE 2.0 mph 5.0 mph 43% 0.00 in
11:39 70.8 °F 45.3 °F 30.19 in NNE 1.0 mph 4.0 mph 40% 0.00 in
11:59 71.0 °F 48.0 °F 30.19 in NNE 2.0 mph 4.0 mph 44% 0.00 in
12:09 71.5 °F 44.6 °F 30.19 in NE 1.0 mph 6.0 mph 38% 0.00 in
12:19 71.2 °F 42.1 °F 30.19 in North 1.0 mph 4.0 mph 35% 0.00 in
12:29 71.1 °F 44.2 °F 30.19 in ENE 1.0 mph 6.0 mph 38% 0.00 in
12:39 71.6 °F 43.2 °F 30.19 in NE 1.0 mph 6.0 mph 36% 0.00 in
12:49 71.7 °F 44.0 °F 30.19 in NE 2.0 mph 7.0 mph 37% 0.00 in
12:59 71.8 °F 43.4 °F 30.19 in NNE 2.0 mph 5.0 mph 36% 0.00 in
13:09 71.9 °F 44.2 °F 30.19 in NE 1.0 mph 5.0 mph 37% 0.00 in
13:19 71.9 °F 42.8 °F 30.20 in ENE 1.0 mph 5.0 mph 35% 0.00 in
13:29 72.1 °F 42.2 °F 30.20 in NE 1.0 mph 5.0 mph 34% 0.00 in
13:39 72.4 °F 41.7 °F 30.20 in North 2.0 mph 4.0 mph 33% 0.00 in
13:49 72.6 °F 42.6 °F 30.20 in NNW 2.0 mph 4.0 mph 34% 0.00 in
13:59 73.0 °F 42.2 °F 30.20 in NNW 2.0 mph 4.0 mph 33% 0.00 in
14:09 73.2 °F 45.3 °F 30.20 in NE 1.0 mph 4.0 mph 37% 0.00 in
14:19 73.8 °F 42.9 °F 30.20 in ENE 2.0 mph 5.0 mph 33% 0.00 in
14:29 73.9 °F 42.2 °F 30.20 in ENE 2.0 mph 4.0 mph 32% 0.00 in
14:39 74.0 °F 41.4 °F 30.20 in East 1.0 mph 5.0 mph 31% 0.00 in
14:59 74.5 °F 41.9 °F 30.20 in ENE 2.0 mph 4.0 mph 31% 0.00 in
15:09 74.2 °F 46.2 °F 30.20 in NE 2.0 mph 6.0 mph 37% 0.00 in
15:19 74.0 °F 41.4 °F 30.19 in North 2.0 mph 5.0 mph 31% 0.00 in
15:29 73.6 °F 43.5 °F 30.19 in Calm   4.0 mph 34% 0.00 in
jolietwx - Weather
Compliments of Weather Underground